sensor_id;sensor_type;location;lat;lon;timestamp;P1;durP1;ratioP1;P2;durP2;ratioP2
9140;SDS011;46330;50.822;7.126;2023-06-22T00:00:35;6.63;;;4.88;;
9140;SDS011;46330;50.822;7.126;2023-06-22T00:03:03;8.98;;;5.75;;
9140;SDS011;46330;50.822;7.126;2023-06-22T00:05:31;7.90;;;5.40;;
9140;SDS011;46330;50.822;7.126;2023-06-22T00:08:01;7.38;;;5.32;;
9140;SDS011;46330;50.822;7.126;2023-06-22T00:10:30;7.18;;;5.05;;
9140;SDS011;46330;50.822;7.126;2023-06-22T00:12:58;7.60;;;5.20;;
9140;SDS011;46330;50.822;7.126;2023-06-22T00:15:27;9.98;;;5.72;;
9140;SDS011;46330;50.822;7.126;2023-06-22T00:17:55;11.80;;;6.30;;
9140;SDS011;46330;50.822;7.126;2023-06-22T00:20:25;10.95;;;5.90;;
9140;SDS011;46330;50.822;7.126;2023-06-22T00:22:57;6.95;;;5.32;;
9140;SDS011;46330;50.822;7.126;2023-06-22T00:25:28;8.50;;;5.50;;
9140;SDS011;46330;50.822;7.126;2023-06-22T00:27:56;8.00;;;5.63;;
9140;SDS011;46330;50.822;7.126;2023-06-22T00:30:26;7.32;;;5.60;;
9140;SDS011;46330;50.822;7.126;2023-06-22T00:32:56;8.30;;;5.30;;
9140;SDS011;46330;50.822;7.126;2023-06-22T00:35:25;6.50;;;4.88;;
9140;SDS011;46330;50.822;7.126;2023-06-22T00:37:55;7.78;;;4.85;;
9140;SDS011;46330;50.822;7.126;2023-06-22T00:40:28;8.52;;;5.35;;
9140;SDS011;46330;50.822;7.126;2023-06-22T00:42:57;7.35;;;5.18;;
9140;SDS011;46330;50.822;7.126;2023-06-22T00:45:25;7.72;;;5.53;;
9140;SDS011;46330;50.822;7.126;2023-06-22T00:47:54;6.35;;;4.68;;
9140;SDS011;46330;50.822;7.126;2023-06-22T00:50:25;7.82;;;5.38;;
9140;SDS011;46330;50.822;7.126;2023-06-22T00:52:57;6.10;;;4.90;;
9140;SDS011;46330;50.822;7.126;2023-06-22T00:55:29;9.18;;;5.65;;
9140;SDS011;46330;50.822;7.126;2023-06-22T00:57:57;8.30;;;5.20;;
9140;SDS011;46330;50.822;7.126;2023-06-22T01:00:25;11.20;;;5.28;;
9140;SDS011;46330;50.822;7.126;2023-06-22T01:02:54;6.82;;;5.20;;
9140;SDS011;46330;50.822;7.126;2023-06-22T01:05:24;7.85;;;5.50;;
9140;SDS011;46330;50.822;7.126;2023-06-22T01:07:56;9.48;;;5.03;;
9140;SDS011;46330;50.822;7.126;2023-06-22T01:10:36;7.50;;;5.07;;
9140;SDS011;46330;50.822;7.126;2023-06-22T01:13:11;6.85;;;5.22;;
9140;SDS011;46330;50.822;7.126;2023-06-22T01:15:46;6.80;;;4.97;;
9140;SDS011;46330;50.822;7.126;2023-06-22T01:18:20;8.23;;;5.20;;
9140;SDS011;46330;50.822;7.126;2023-06-22T01:20:52;7.38;;;5.15;;
9140;SDS011;46330;50.822;7.126;2023-06-22T01:23:26;6.68;;;5.10;;
9140;SDS011;46330;50.822;7.126;2023-06-22T01:26:01;6.70;;;4.88;;
9140;SDS011;46330;50.822;7.126;2023-06-22T01:28:39;6.45;;;4.95;;
9140;SDS011;46330;50.822;7.126;2023-06-22T01:31:12;8.73;;;5.10;;
9140;SDS011;46330;50.822;7.126;2023-06-22T01:33:44;10.50;;;5.32;;
9140;SDS011;46330;50.822;7.126;2023-06-22T01:36:16;6.78;;;5.00;;
9140;SDS011;46330;50.822;7.126;2023-06-22T01:38:45;8.65;;;5.53;;
9140;SDS011;46330;50.822;7.126;2023-06-22T01:41:17;6.70;;;5.20;;
9140;SDS011;46330;50.822;7.126;2023-06-22T01:43:49;6.53;;;5.50;;
9140;SDS011;46330;50.822;7.126;2023-06-22T01:46:19;7.18;;;5.60;;
9140;SDS011;46330;50.822;7.126;2023-06-22T01:48:48;7.03;;;5.65;;
9140;SDS011;46330;50.822;7.126;2023-06-22T01:51:17;8.30;;;5.75;;
9140;SDS011;46330;50.822;7.126;2023-06-22T01:53:45;7.65;;;5.40;;
9140;SDS011;46330;50.822;7.126;2023-06-22T01:56:15;8.10;;;5.57;;
9140;SDS011;46330;50.822;7.126;2023-06-22T01:58:49;8.45;;;5.57;;
9140;SDS011;46330;50.822;7.126;2023-06-22T02:01:23;8.80;;;5.68;;
9140;SDS011;46330;50.822;7.126;2023-06-22T02:03:57;6.60;;;5.55;;
9140;SDS011;46330;50.822;7.126;2023-06-22T02:06:31;10.57;;;5.78;;
9140;SDS011;46330;50.822;7.126;2023-06-22T02:09:05;7.90;;;5.88;;
9140;SDS011;46330;50.822;7.126;2023-06-22T02:11:37;8.15;;;6.10;;
9140;SDS011;46330;50.822;7.126;2023-06-22T02:14:08;10.85;;;7.03;;
9140;SDS011;46330;50.822;7.126;2023-06-22T02:16:38;9.80;;;6.38;;
9140;SDS011;46330;50.822;7.126;2023-06-22T02:19:07;11.45;;;6.53;;
9140;SDS011;46330;50.822;7.126;2023-06-22T02:21:35;7.95;;;6.03;;
9140;SDS011;46330;50.822;7.126;2023-06-22T02:24:03;8.05;;;6.13;;
9140;SDS011;46330;50.822;7.126;2023-06-22T02:26:31;11.60;;;6.20;;
9140;SDS011;46330;50.822;7.126;2023-06-22T02:29:01;8.65;;;6.47;;
9140;SDS011;46330;50.822;7.126;2023-06-22T02:31:30;10.35;;;5.72;;
9140;SDS011;46330;50.822;7.126;2023-06-22T02:33:58;7.40;;;6.05;;
9140;SDS011;46330;50.822;7.126;2023-06-22T02:36:27;7.07;;;5.97;;
9140;SDS011;46330;50.822;7.126;2023-06-22T02:38:59;7.30;;;6.05;;
9140;SDS011;46330;50.822;7.126;2023-06-22T02:41:29;10.55;;;5.82;;
9140;SDS011;46330;50.822;7.126;2023-06-22T02:43:57;8.13;;;6.00;;
9140;SDS011;46330;50.822;7.126;2023-06-22T02:46:25;9.70;;;5.97;;
9140;SDS011;46330;50.822;7.126;2023-06-22T02:48:54;10.23;;;6.20;;
9140;SDS011;46330;50.822;7.126;2023-06-22T02:51:22;8.50;;;6.03;;
9140;SDS011;46330;50.822;7.126;2023-06-22T02:53:50;8.82;;;6.20;;
9140;SDS011;46330;50.822;7.126;2023-06-22T02:56:25;8.93;;;5.80;;
9140;SDS011;46330;50.822;7.126;2023-06-22T02:58:57;8.65;;;5.53;;
9140;SDS011;46330;50.822;7.126;2023-06-22T03:01:31;7.50;;;5.53;;
9140;SDS011;46330;50.822;7.126;2023-06-22T03:04:06;10.43;;;6.07;;
9140;SDS011;46330;50.822;7.126;2023-06-22T03:06:35;12.88;;;5.68;;
9140;SDS011;46330;50.822;7.126;2023-06-22T03:09:04;9.13;;;5.97;;
9140;SDS011;46330;50.822;7.126;2023-06-22T03:11:34;7.88;;;6.00;;
9140;SDS011;46330;50.822;7.126;2023-06-22T03:14:02;8.63;;;6.07;;
9140;SDS011;46330;50.822;7.126;2023-06-22T03:16:30;8.95;;;5.88;;
9140;SDS011;46330;50.822;7.126;2023-06-22T03:18:59;7.70;;;6.00;;
9140;SDS011;46330;50.822;7.126;2023-06-22T03:21:29;9.02;;;5.72;;
9140;SDS011;46330;50.822;7.126;2023-06-22T03:23:59;7.40;;;6.05;;
9140;SDS011;46330;50.822;7.126;2023-06-22T03:26:27;7.43;;;6.13;;
9140;SDS011;46330;50.822;7.126;2023-06-22T03:28:56;10.43;;;5.90;;
9140;SDS011;46330;50.822;7.126;2023-06-22T03:31:24;8.43;;;6.53;;
9140;SDS011;46330;50.822;7.126;2023-06-22T03:33:52;9.50;;;6.95;;
9140;SDS011;46330;50.822;7.126;2023-06-22T03:36:22;9.60;;;7.10;;
9140;SDS011;46330;50.822;7.126;2023-06-22T03:38:52;9.82;;;6.57;;
9140;SDS011;46330;50.822;7.126;2023-06-22T03:41:20;9.80;;;6.47;;
9140;SDS011;46330;50.822;7.126;2023-06-22T03:43:49;9.77;;;7.03;;
9140;SDS011;46330;50.822;7.126;2023-06-22T03:46:17;10.10;;;6.65;;
9140;SDS011;46330;50.822;7.126;2023-06-22T03:48:46;8.27;;;6.78;;
9140;SDS011;46330;50.822;7.126;2023-06-22T03:51:14;9.32;;;6.85;;
9140;SDS011;46330;50.822;7.126;2023-06-22T03:53:42;9.80;;;7.07;;
9140;SDS011;46330;50.822;7.126;2023-06-22T03:56:11;9.07;;;7.30;;
9140;SDS011;46330;50.822;7.126;2023-06-22T03:58:39;9.93;;;7.38;;
9140;SDS011;46330;50.822;7.126;2023-06-22T04:01:09;9.93;;;7.85;;
9140;SDS011;46330;50.822;7.126;2023-06-22T04:03:38;11.82;;;7.78;;
9140;SDS011;46330;50.822;7.126;2023-06-22T04:06:06;12.38;;;8.43;;
9140;SDS011;46330;50.822;7.126;2023-06-22T04:08:35;10.88;;;7.70;;
9140;SDS011;46330;50.822;7.126;2023-06-22T04:11:02;10.13;;;7.60;;
9140;SDS011;46330;50.822;7.126;2023-06-22T04:13:32;8.68;;;6.93;;
9140;SDS011;46330;50.822;7.126;2023-06-22T04:16:00;11.75;;;6.90;;
9140;SDS011;46330;50.822;7.126;2023-06-22T04:18:28;10.90;;;7.32;;
9140;SDS011;46330;50.822;7.126;2023-06-22T04:20:56;9.63;;;6.72;;
9140;SDS011;46330;50.822;7.126;2023-06-22T04:23:24;10.00;;;7.50;;
9140;SDS011;46330;50.822;7.126;2023-06-22T04:25:52;11.95;;;6.70;;
9140;SDS011;46330;50.822;7.126;2023-06-22T04:28:22;10.18;;;6.97;;
9140;SDS011;46330;50.822;7.126;2023-06-22T04:30:55;10.25;;;7.15;;
9140;SDS011;46330;50.822;7.126;2023-06-22T04:33:24;9.32;;;6.97;;
9140;SDS011;46330;50.822;7.126;2023-06-22T04:35:52;9.02;;;6.82;;
9140;SDS011;46330;50.822;7.126;2023-06-22T04:38:20;10.55;;;7.10;;
9140;SDS011;46330;50.822;7.126;2023-06-22T04:40:49;9.13;;;7.18;;
9140;SDS011;46330;50.822;7.126;2023-06-22T04:43:18;12.57;;;8.30;;
9140;SDS011;46330;50.822;7.126;2023-06-22T04:45:46;9.15;;;7.82;;
9140;SDS011;46330;50.822;7.126;2023-06-22T04:48:20;9.07;;;7.60;;
9140;SDS011;46330;50.822;7.126;2023-06-22T04:50:48;10.55;;;7.32;;
9140;SDS011;46330;50.822;7.126;2023-06-22T04:53:16;9.68;;;7.28;;
9140;SDS011;46330;50.822;7.126;2023-06-22T04:55:44;9.80;;;6.80;;
9140;SDS011;46330;50.822;7.126;2023-06-22T04:58:13;10.18;;;7.43;;
9140;SDS011;46330;50.822;7.126;2023-06-22T05:00:41;10.57;;;7.13;;
9140;SDS011;46330;50.822;7.126;2023-06-22T05:03:11;7.85;;;6.63;;
9140;SDS011;46330;50.822;7.126;2023-06-22T05:05:47;8.38;;;6.97;;
9140;SDS011;46330;50.822;7.126;2023-06-22T05:08:15;9.93;;;7.28;;
9140;SDS011;46330;50.822;7.126;2023-06-22T05:10:43;8.68;;;6.53;;
9140;SDS011;46330;50.822;7.126;2023-06-22T05:13:29;11.00;;;7.60;;
9140;SDS011;46330;50.822;7.126;2023-06-22T05:15:58;11.25;;;6.55;;
9140;SDS011;46330;50.822;7.126;2023-06-22T05:18:29;8.70;;;6.80;;
9140;SDS011;46330;50.822;7.126;2023-06-22T05:20:59;10.95;;;6.70;;
9140;SDS011;46330;50.822;7.126;2023-06-22T05:23:27;9.48;;;6.82;;
9140;SDS011;46330;50.822;7.126;2023-06-22T05:25:55;8.60;;;6.50;;
9140;SDS011;46330;50.822;7.126;2023-06-22T05:28:24;9.13;;;6.05;;
9140;SDS011;46330;50.822;7.126;2023-06-22T05:30:52;8.73;;;6.05;;
9140;SDS011;46330;50.822;7.126;2023-06-22T05:33:21;8.80;;;5.88;;
9140;SDS011;46330;50.822;7.126;2023-06-22T05:35:49;8.02;;;5.78;;
9140;SDS011;46330;50.822;7.126;2023-06-22T05:38:18;8.65;;;5.68;;
9140;SDS011;46330;50.822;7.126;2023-06-22T05:40:46;10.88;;;5.63;;
9140;SDS011;46330;50.822;7.126;2023-06-22T05:43:14;8.27;;;5.70;;
9140;SDS011;46330;50.822;7.126;2023-06-22T05:45:42;10.18;;;5.78;;
9140;SDS011;46330;50.822;7.126;2023-06-22T05:48:10;9.23;;;5.38;;
9140;SDS011;46330;50.822;7.126;2023-06-22T05:50:38;8.45;;;5.75;;
9140;SDS011;46330;50.822;7.126;2023-06-22T05:53:06;7.53;;;5.22;;
9140;SDS011;46330;50.822;7.126;2023-06-22T05:55:36;7.30;;;5.30;;
9140;SDS011;46330;50.822;7.126;2023-06-22T05:58:04;10.13;;;5.70;;
9140;SDS011;46330;50.822;7.126;2023-06-22T06:00:32;9.10;;;5.55;;
9140;SDS011;46330;50.822;7.126;2023-06-22T06:03:00;7.68;;;5.70;;
9140;SDS011;46330;50.822;7.126;2023-06-22T06:05:30;8.15;;;5.53;;
9140;SDS011;46330;50.822;7.126;2023-06-22T06:07:58;8.60;;;5.75;;
9140;SDS011;46330;50.822;7.126;2023-06-22T06:10:27;9.25;;;6.00;;
9140;SDS011;46330;50.822;7.126;2023-06-22T06:12:58;9.43;;;5.93;;
9140;SDS011;46330;50.822;7.126;2023-06-22T06:15:28;8.23;;;5.93;;
9140;SDS011;46330;50.822;7.126;2023-06-22T06:17:57;8.20;;;5.88;;
9140;SDS011;46330;50.822;7.126;2023-06-22T06:20:26;7.93;;;5.53;;
9140;SDS011;46330;50.822;7.126;2023-06-22T06:22:55;7.30;;;5.88;;
9140;SDS011;46330;50.822;7.126;2023-06-22T06:25:23;7.55;;;5.60;;
9140;SDS011;46330;50.822;7.126;2023-06-22T06:27:53;9.55;;;5.72;;
9140;SDS011;46330;50.822;7.126;2023-06-22T06:30:23;7.90;;;5.53;;
9140;SDS011;46330;50.822;7.126;2023-06-22T06:32:51;8.65;;;5.90;;
9140;SDS011;46330;50.822;7.126;2023-06-22T06:35:19;10.05;;;5.93;;
9140;SDS011;46330;50.822;7.126;2023-06-22T06:37:49;8.32;;;6.13;;
9140;SDS011;46330;50.822;7.126;2023-06-22T06:40:18;7.50;;;6.00;;
9140;SDS011;46330;50.822;7.126;2023-06-22T06:42:47;8.57;;;6.10;;
9140;SDS011;46330;50.822;7.126;2023-06-22T06:45:16;16.15;;;6.40;;
9140;SDS011;46330;50.822;7.126;2023-06-22T06:47:47;8.10;;;5.50;;
9140;SDS011;46330;50.822;7.126;2023-06-22T06:50:16;7.43;;;5.70;;
9140;SDS011;46330;50.822;7.126;2023-06-22T06:52:44;9.63;;;6.05;;
9140;SDS011;46330;50.822;7.126;2023-06-22T06:55:12;7.63;;;5.72;;
9140;SDS011;46330;50.822;7.126;2023-06-22T06:57:40;10.48;;;5.88;;
9140;SDS011;46330;50.822;7.126;2023-06-22T07:00:10;8.07;;;5.68;;
9140;SDS011;46330;50.822;7.126;2023-06-22T07:02:41;8.65;;;5.97;;
9140;SDS011;46330;50.822;7.126;2023-06-22T07:05:15;9.52;;;5.80;;
9140;SDS011;46330;50.822;7.126;2023-06-22T07:07:43;6.57;;;5.22;;
9140;SDS011;46330;50.822;7.126;2023-06-22T07:10:11;7.70;;;5.57;;
9140;SDS011;46330;50.822;7.126;2023-06-22T07:12:39;7.38;;;5.13;;
9140;SDS011;46330;50.822;7.126;2023-06-22T07:15:08;7.70;;;5.65;;
9140;SDS011;46330;50.822;7.126;2023-06-22T07:17:39;8.40;;;5.72;;
9140;SDS011;46330;50.822;7.126;2023-06-22T07:20:08;7.57;;;5.60;;
9140;SDS011;46330;50.822;7.126;2023-06-22T07:22:41;10.07;;;5.60;;
9140;SDS011;46330;50.822;7.126;2023-06-22T07:25:10;8.13;;;5.22;;
9140;SDS011;46330;50.822;7.126;2023-06-22T07:27:44;7.65;;;5.10;;
9140;SDS011;46330;50.822;7.126;2023-06-22T07:30:13;7.82;;;5.30;;
9140;SDS011;46330;50.822;7.126;2023-06-22T07:32:41;10.57;;;5.40;;
9140;SDS011;46330;50.822;7.126;2023-06-22T07:35:09;7.30;;;5.55;;
9140;SDS011;46330;50.822;7.126;2023-06-22T07:37:37;9.50;;;5.43;;
9140;SDS011;46330;50.822;7.126;2023-06-22T07:40:07;7.50;;;5.28;;
9140;SDS011;46330;50.822;7.126;2023-06-22T07:42:36;6.82;;;5.28;;
9140;SDS011;46330;50.822;7.126;2023-06-22T07:45:04;10.20;;;5.47;;
9140;SDS011;46330;50.822;7.126;2023-06-22T07:47:34;7.55;;;4.97;;
9140;SDS011;46330;50.822;7.126;2023-06-22T07:50:03;7.32;;;5.30;;
9140;SDS011;46330;50.822;7.126;2023-06-22T07:52:32;6.40;;;5.22;;
9140;SDS011;46330;50.822;7.126;2023-06-22T07:55:00;6.28;;;4.82;;
9140;SDS011;46330;50.822;7.126;2023-06-22T07:57:30;5.93;;;5.20;;
9140;SDS011;46330;50.822;7.126;2023-06-22T08:00:00;6.40;;;4.70;;
9140;SDS011;46330;50.822;7.126;2023-06-22T08:02:41;6.22;;;4.82;;
9140;SDS011;46330;50.822;7.126;2023-06-22T08:05:09;7.43;;;5.05;;
9140;SDS011;46330;50.822;7.126;2023-06-22T08:07:41;5.75;;;4.78;;
9140;SDS011;46330;50.822;7.126;2023-06-22T08:10:13;6.88;;;4.65;;
9140;SDS011;46330;50.822;7.126;2023-06-22T08:12:43;6.13;;;4.68;;
9140;SDS011;46330;50.822;7.126;2023-06-22T08:15:11;7.00;;;5.18;;
9140;SDS011;46330;50.822;7.126;2023-06-22T08:17:39;6.32;;;5.00;;
9140;SDS011;46330;50.822;7.126;2023-06-22T08:20:08;6.75;;;5.05;;
9140;SDS011;46330;50.822;7.126;2023-06-22T08:22:38;6.28;;;4.70;;
9140;SDS011;46330;50.822;7.126;2023-06-22T08:25:07;7.90;;;4.78;;
9140;SDS011;46330;50.822;7.126;2023-06-22T08:27:36;5.68;;;4.88;;
9140;SDS011;46330;50.822;7.126;2023-06-22T08:30:06;7.10;;;4.90;;
9140;SDS011;46330;50.822;7.126;2023-06-22T08:32:36;6.95;;;4.95;;
9140;SDS011;46330;50.822;7.126;2023-06-22T08:35:06;7.63;;;4.57;;
9140;SDS011;46330;50.822;7.126;2023-06-22T08:37:34;7.10;;;4.50;;
9140;SDS011;46330;50.822;7.126;2023-06-22T08:40:03;5.00;;;4.50;;
9140;SDS011;46330;50.822;7.126;2023-06-22T08:42:34;6.82;;;4.70;;
9140;SDS011;46330;50.822;7.126;2023-06-22T08:45:02;7.38;;;4.30;;
9140;SDS011;46330;50.822;7.126;2023-06-22T08:47:33;9.05;;;4.97;;
9140;SDS011;46330;50.822;7.126;2023-06-22T08:50:00;5.47;;;4.40;;
9140;SDS011;46330;50.822;7.126;2023-06-22T08:52:30;7.25;;;4.82;;
9140;SDS011;46330;50.822;7.126;2023-06-22T08:54:58;6.60;;;4.70;;
9140;SDS011;46330;50.822;7.126;2023-06-22T08:57:26;6.43;;;4.95;;
9140;SDS011;46330;50.822;7.126;2023-06-22T08:59:54;6.80;;;4.85;;
9140;SDS011;46330;50.822;7.126;2023-06-22T09:02:25;6.43;;;4.95;;
9140;SDS011;46330;50.822;7.126;2023-06-22T09:04:58;7.47;;;5.03;;
9140;SDS011;46330;50.822;7.126;2023-06-22T09:07:26;7.90;;;4.75;;
9140;SDS011;46330;50.822;7.126;2023-06-22T09:09:55;6.78;;;5.20;;
9140;SDS011;46330;50.822;7.126;2023-06-22T09:12:23;8.07;;;5.07;;
9140;SDS011;46330;50.822;7.126;2023-06-22T09:14:53;6.07;;;5.43;;
9140;SDS011;46330;50.822;7.126;2023-06-22T09:17:21;6.53;;;5.25;;
9140;SDS011;46330;50.822;7.126;2023-06-22T09:19:49;6.63;;;5.32;;
9140;SDS011;46330;50.822;7.126;2023-06-22T09:22:19;6.45;;;5.20;;
9140;SDS011;46330;50.822;7.126;2023-06-22T09:24:47;7.38;;;5.00;;
9140;SDS011;46330;50.822;7.126;2023-06-22T09:27:15;7.78;;;5.28;;
9140;SDS011;46330;50.822;7.126;2023-06-22T09:29:43;7.32;;;5.20;;
9140;SDS011;46330;50.822;7.126;2023-06-22T09:32:11;7.30;;;5.35;;
9140;SDS011;46330;50.822;7.126;2023-06-22T09:34:39;6.68;;;5.05;;
9140;SDS011;46330;50.822;7.126;2023-06-22T09:37:07;8.02;;;4.95;;
9140;SDS011;46330;50.822;7.126;2023-06-22T09:39:37;7.10;;;4.78;;
9140;SDS011;46330;50.822;7.126;2023-06-22T09:42:05;5.63;;;4.78;;
9140;SDS011;46330;50.822;7.126;2023-06-22T09:44:33;5.22;;;4.45;;
9140;SDS011;46330;50.822;7.126;2023-06-22T09:47:02;6.13;;;4.80;;
9140;SDS011;46330;50.822;7.126;2023-06-22T09:49:30;6.63;;;5.05;;
9140;SDS011;46330;50.822;7.126;2023-06-22T09:52:13;6.18;;;4.88;;
9140;SDS011;46330;50.822;7.126;2023-06-22T09:54:42;6.38;;;4.72;;
9140;SDS011;46330;50.822;7.126;2023-06-22T09:57:10;6.40;;;4.55;;
9140;SDS011;46330;50.822;7.126;2023-06-22T09:59:39;6.38;;;4.60;;
9140;SDS011;46330;50.822;7.126;2023-06-22T10:02:07;8.77;;;5.10;;
9140;SDS011;46330;50.822;7.126;2023-06-22T10:04:35;7.28;;;4.85;;
9140;SDS011;46330;50.822;7.126;2023-06-22T10:07:04;7.60;;;5.20;;
9140;SDS011;46330;50.822;7.126;2023-06-22T10:09:32;8.77;;;5.00;;
9140;SDS011;46330;50.822;7.126;2023-06-22T10:12:02;8.07;;;5.10;;
9140;SDS011;46330;50.822;7.126;2023-06-22T10:14:30;7.95;;;5.60;;
9140;SDS011;46330;50.822;7.126;2023-06-22T10:16:58;9.27;;;5.78;;
9140;SDS011;46330;50.822;7.126;2023-06-22T10:19:26;6.75;;;5.47;;
9140;SDS011;46330;50.822;7.126;2023-06-22T10:21:54;8.77;;;5.88;;
9140;SDS011;46330;50.822;7.126;2023-06-22T10:24:22;7.82;;;5.25;;
9140;SDS011;46330;50.822;7.126;2023-06-22T10:26:50;8.85;;;6.07;;
9140;SDS011;46330;50.822;7.126;2023-06-22T10:29:19;8.77;;;6.30;;
9140;SDS011;46330;50.822;7.126;2023-06-22T10:31:47;9.93;;;6.47;;
9140;SDS011;46330;50.822;7.126;2023-06-22T10:34:15;9.88;;;6.65;;
9140;SDS011;46330;50.822;7.126;2023-06-22T10:36:43;12.27;;;6.72;;
9140;SDS011;46330;50.822;7.126;2023-06-22T10:39:14;10.43;;;7.30;;
9140;SDS011;46330;50.822;7.126;2023-06-22T10:41:42;10.10;;;7.90;;
9140;SDS011;46330;50.822;7.126;2023-06-22T10:44:10;8.95;;;6.43;;
9140;SDS011;46330;50.822;7.126;2023-06-22T10:46:40;9.40;;;7.30;;
9140;SDS011;46330;50.822;7.126;2023-06-22T10:49:08;11.80;;;8.00;;
9140;SDS011;46330;50.822;7.126;2023-06-22T10:51:36;12.50;;;8.02;;
9140;SDS011;46330;50.822;7.126;2023-06-22T10:54:04;13.07;;;8.73;;
9140;SDS011;46330;50.822;7.126;2023-06-22T10:56:31;11.50;;;7.78;;
9140;SDS011;46330;50.822;7.126;2023-06-22T10:59:00;12.82;;;8.20;;
9140;SDS011;46330;50.822;7.126;2023-06-22T11:01:28;15.25;;;8.55;;
9140;SDS011;46330;50.822;7.126;2023-06-22T11:04:03;11.97;;;8.60;;
9140;SDS011;46330;50.822;7.126;2023-06-22T11:06:32;15.30;;;8.82;;
9140;SDS011;46330;50.822;7.126;2023-06-22T11:09:00;17.23;;;10.50;;
9140;SDS011;46330;50.822;7.126;2023-06-22T11:11:50;16.02;;;9.30;;
9140;SDS011;46330;50.822;7.126;2023-06-22T11:14:20;15.35;;;10.15;;
9140;SDS011;46330;50.822;7.126;2023-06-22T11:16:48;12.93;;;9.02;;
9140;SDS011;46330;50.822;7.126;2023-06-22T11:19:18;12.10;;;8.85;;
9140;SDS011;46330;50.822;7.126;2023-06-22T11:21:46;13.40;;;9.55;;
9140;SDS011;46330;50.822;7.126;2023-06-22T11:24:15;13.25;;;9.23;;
9140;SDS011;46330;50.822;7.126;2023-06-22T11:26:44;13.23;;;9.20;;
9140;SDS011;46330;50.822;7.126;2023-06-22T11:29:11;10.95;;;8.90;;
9140;SDS011;46330;50.822;7.126;2023-06-22T11:31:57;12.80;;;9.27;;
9140;SDS011;46330;50.822;7.126;2023-06-22T11:34:27;10.82;;;9.23;;
9140;SDS011;46330;50.822;7.126;2023-06-22T11:36:55;14.45;;;8.98;;
9140;SDS011;46330;50.822;7.126;2023-06-22T11:42:13;12.77;;;8.98;;
9140;SDS011;46330;50.822;7.126;2023-06-22T11:44:41;12.20;;;9.55;;
9140;SDS011;46330;50.822;7.126;2023-06-22T11:47:09;12.40;;;9.55;;
9140;SDS011;46330;50.822;7.126;2023-06-22T11:49:38;11.80;;;8.75;;
9140;SDS011;46330;50.822;7.126;2023-06-22T11:52:07;14.27;;;9.15;;
9140;SDS011;46330;50.822;7.126;2023-06-22T11:54:35;12.00;;;8.00;;
9140;SDS011;46330;50.822;7.126;2023-06-22T11:57:03;11.23;;;7.32;;
9140;SDS011;46330;50.822;7.126;2023-06-22T11:59:31;9.40;;;6.95;;
9140;SDS011;46330;50.822;7.126;2023-06-22T12:01:59;9.13;;;7.22;;
9140;SDS011;46330;50.822;7.126;2023-06-22T12:04:27;10.32;;;6.70;;
9140;SDS011;46330;50.822;7.126;2023-06-22T12:06:57;12.07;;;7.50;;
9140;SDS011;46330;50.822;7.126;2023-06-22T12:09:25;10.20;;;7.20;;
9140;SDS011;46330;50.822;7.126;2023-06-22T12:11:53;8.70;;;7.28;;
9140;SDS011;46330;50.822;7.126;2023-06-22T12:14:21;10.05;;;7.47;;
9140;SDS011;46330;50.822;7.126;2023-06-22T12:16:49;10.80;;;7.43;;
9140;SDS011;46330;50.822;7.126;2023-06-22T12:19:17;8.77;;;7.13;;
9140;SDS011;46330;50.822;7.126;2023-06-22T12:21:45;7.45;;;6.63;;
9140;SDS011;46330;50.822;7.126;2023-06-22T12:24:14;10.13;;;6.95;;
9140;SDS011;46330;50.822;7.126;2023-06-22T12:26:42;8.95;;;6.75;;
9140;SDS011;46330;50.822;7.126;2023-06-22T12:29:10;7.75;;;6.38;;
9140;SDS011;46330;50.822;7.126;2023-06-22T12:31:38;9.15;;;6.35;;
9140;SDS011;46330;50.822;7.126;2023-06-22T12:34:06;8.23;;;6.47;;
9140;SDS011;46330;50.822;7.126;2023-06-22T12:36:34;8.25;;;6.70;;
9140;SDS011;46330;50.822;7.126;2023-06-22T12:39:02;8.57;;;6.00;;
9140;SDS011;46330;50.822;7.126;2023-06-22T12:41:32;8.15;;;5.22;;
9140;SDS011;46330;50.822;7.126;2023-06-22T12:44:00;7.03;;;5.50;;
9140;SDS011;46330;50.822;7.126;2023-06-22T12:46:28;6.82;;;4.70;;
9140;SDS011;46330;50.822;7.126;2023-06-22T12:48:57;6.30;;;5.00;;
9140;SDS011;46330;50.822;7.126;2023-06-22T12:51:27;5.60;;;4.45;;
9140;SDS011;46330;50.822;7.126;2023-06-22T12:53:55;8.00;;;4.53;;
9140;SDS011;46330;50.822;7.126;2023-06-22T12:56:23;5.60;;;4.00;;
9140;SDS011;46330;50.822;7.126;2023-06-22T12:58:52;5.30;;;3.90;;
9140;SDS011;46330;50.822;7.126;2023-06-22T13:01:20;5.75;;;4.10;;
9140;SDS011;46330;50.822;7.126;2023-06-22T13:03:49;6.13;;;4.05;;
9140;SDS011;46330;50.822;7.126;2023-06-22T13:06:17;4.53;;;3.92;;
9140;SDS011;46330;50.822;7.126;2023-06-22T13:08:45;4.88;;;3.90;;
9140;SDS011;46330;50.822;7.126;2023-06-22T13:11:16;6.53;;;4.03;;
9140;SDS011;46330;50.822;7.126;2023-06-22T13:13:44;7.13;;;4.32;;
9140;SDS011;46330;50.822;7.126;2023-06-22T13:16:14;6.38;;;3.75;;
9140;SDS011;46330;50.822;7.126;2023-06-22T13:18:42;5.72;;;4.00;;
9140;SDS011;46330;50.822;7.126;2023-06-22T13:21:10;5.65;;;3.80;;
9140;SDS011;46330;50.822;7.126;2023-06-22T13:23:37;6.18;;;3.80;;
9140;SDS011;46330;50.822;7.126;2023-06-22T13:26:07;6.15;;;3.83;;
9140;SDS011;46330;50.822;7.126;2023-06-22T13:28:35;6.22;;;4.07;;
9140;SDS011;46330;50.822;7.126;2023-06-22T13:31:03;5.28;;;3.67;;
9140;SDS011;46330;50.822;7.126;2023-06-22T13:33:33;5.72;;;3.53;;
9140;SDS011;46330;50.822;7.126;2023-06-22T13:36:01;4.97;;;3.53;;
9140;SDS011;46330;50.822;7.126;2023-06-22T13:38:29;5.00;;;3.85;;
9140;SDS011;46330;50.822;7.126;2023-06-22T13:40:58;5.97;;;3.88;;
9140;SDS011;46330;50.822;7.126;2023-06-22T13:43:27;4.93;;;3.67;;
9140;SDS011;46330;50.822;7.126;2023-06-22T13:45:55;3.60;;;3.30;;
9140;SDS011;46330;50.822;7.126;2023-06-22T13:48:23;4.60;;;3.38;;
9140;SDS011;46330;50.822;7.126;2023-06-22T13:50:53;5.80;;;3.35;;
9140;SDS011;46330;50.822;7.126;2023-06-22T13:53:21;4.40;;;3.40;;
9140;SDS011;46330;50.822;7.126;2023-06-22T13:55:50;6.15;;;3.75;;
9140;SDS011;46330;50.822;7.126;2023-06-22T13:58:18;6.30;;;3.80;;
9140;SDS011;46330;50.822;7.126;2023-06-22T14:00:47;4.28;;;3.60;;
9140;SDS011;46330;50.822;7.126;2023-06-22T14:03:15;6.53;;;4.10;;
9140;SDS011;46330;50.822;7.126;2023-06-22T14:05:43;6.35;;;4.13;;
9140;SDS011;46330;50.822;7.126;2023-06-22T14:08:12;7.00;;;4.72;;
9140;SDS011;46330;50.822;7.126;2023-06-22T14:11:01;6.53;;;4.78;;
9140;SDS011;46330;50.822;7.126;2023-06-22T14:13:29;8.57;;;5.50;;
9140;SDS011;46330;50.822;7.126;2023-06-22T14:15:57;9.20;;;5.80;;
9140;SDS011;46330;50.822;7.126;2023-06-22T14:18:25;8.35;;;5.50;;
9140;SDS011;46330;50.822;7.126;2023-06-22T14:20:53;6.72;;;5.55;;
9140;SDS011;46330;50.822;7.126;2023-06-22T14:23:22;6.88;;;5.53;;
9140;SDS011;46330;50.822;7.126;2023-06-22T14:25:51;7.10;;;5.80;;
9140;SDS011;46330;50.822;7.126;2023-06-22T14:28:19;8.90;;;5.97;;
9140;SDS011;46330;50.822;7.126;2023-06-22T14:30:47;8.27;;;5.80;;
9140;SDS011;46330;50.822;7.126;2023-06-22T14:33:16;7.65;;;6.13;;
9140;SDS011;46330;50.822;7.126;2023-06-22T14:35:52;8.77;;;6.32;;
9140;SDS011;46330;50.822;7.126;2023-06-22T14:38:20;7.88;;;6.18;;
9140;SDS011;46330;50.822;7.126;2023-06-22T14:40:50;9.23;;;6.85;;
9140;SDS011;46330;50.822;7.126;2023-06-22T14:43:38;13.35;;;7.10;;
9140;SDS011;46330;50.822;7.126;2023-06-22T14:46:06;13.90;;;7.75;;
9140;SDS011;46330;50.822;7.126;2023-06-22T14:48:34;13.18;;;7.70;;
9140;SDS011;46330;50.822;7.126;2023-06-22T14:51:02;19.20;;;8.73;;
9140;SDS011;46330;50.822;7.126;2023-06-22T14:53:30;11.38;;;7.88;;
9140;SDS011;46330;50.822;7.126;2023-06-22T14:56:01;14.50;;;8.40;;
9140;SDS011;46330;50.822;7.126;2023-06-22T14:58:34;12.73;;;7.93;;
9140;SDS011;46330;50.822;7.126;2023-06-22T15:01:02;12.98;;;8.38;;
9140;SDS011;46330;50.822;7.126;2023-06-22T15:03:31;10.55;;;8.00;;
9140;SDS011;46330;50.822;7.126;2023-06-22T15:05:59;12.95;;;8.80;;
9140;SDS011;46330;50.822;7.126;2023-06-22T15:08:28;15.75;;;9.25;;
9140;SDS011;46330;50.822;7.126;2023-06-22T15:10:57;12.38;;;9.20;;
9140;SDS011;46330;50.822;7.126;2023-06-22T15:13:29;11.00;;;8.02;;